Hobbema, Canada
Current Conditions -  °F | °C
As of 1:00 AM on Thursday 18 Dec 2014 (Local Time) from CYEG Reporting Station
Moderate Fog Moderate Fog  
Wind Chill: -10°   Ceiling: 100
Heat Index: -10°   Visibility: 0.25mi
Dew Point: -11°   Wind: 3mph
Humidity: 93%   Direction: 140°SE
Pressure: 29.83"   Gusts: NA
Location:  52.83°N, 113.45°W
Report Text: CYEG 180800Z 14003KT 1/4SM R02/2600V4500FT/N R12/2600V4500FT/U FZFG VV001 M10/M11 A2983 RMK FG8 FROIN SLP145
Loading
Personal Weather Stations






























Interactive Weather Map New forecast layout! Learn more

10-Day Weather Forecast

Advertisements
Track Severe Weather on mobile